Latest Coastal Weather Observations for Smithton

IDV60701

Issued at 7:32 pm EDT Thursday 30 March 2017 (issued every 10 minutes, with the page automatically refreshed every 10 minutes)

About coastal observations | Map of coastal stations | Coastal observations for VIC | Marine services | Other Formats
Station Details ID: 091292 Name: SMITHTON AERODROME Lat: -40.83 Lon: 145.08 Height: 7.5 m
Data from the previous 72 hours. | See also: Recent months at Smithton
Date/Time
EDT
Temp
°C
Wind Pressure Rain since
9am
mm
Weather Cloud Vis
km
Sea
Height
m
Swell
Dir  Spd
kts
Gust
kts
hPa Trend Height
m
Period
s
Dir
30/07:30pm 10.4 SW 10 13 1019.5 - 0.0 - - - - - - -
30/07:00pm 11.9 SW 11 15 1018.9 - 0.0 - - - - - - -
30/06:30pm 13.1 SW 14 19 1018.5 - 0.0 - - - - - - -
30/06:00pm 13.1 SSW 14 19 1017.8 - 0.0 - - - - - - -
30/05:30pm 14.5 SW 15 19 1017.3 - 0.0 - - - - - - -
30/05:00pm 15.1 SSW 16 20 1017.0 - 0.0 - - - - - - -
30/04:30pm 13.3 SSW 13 17 1016.8 - 0.0 - - - - - - -
30/04:00pm 14.6 SSW 13 20 1016.4 - 0.0 - - - - - - -
30/03:30pm 15.2 SSW 16 19 1016.0 - 0.0 - - - - - - -
30/03:00pm 14.8 SW 16 22 1015.7 - 0.0 - - - - - - -
30/02:38pm 16.2 SW 16 27 1015.7 - 0.0 - - - - - - -
30/02:30pm 14.9 SW 15 22 1015.8 - 0.0 - - - - - - -
30/02:00pm 15.4 SSW 14 19 1015.7 - 0.0 - - - - - - -
30/01:30pm 15.9 SW 14 20 1015.7 - 0.0 - - - - - - -
30/01:00pm 15.0 SW 15 19 1015.6 - 0.0 - - - - - - -
30/12:30pm 12.9 SSW 15 20 1015.8 - 0.0 - - - - - - -
30/12:00pm 14.9 SW 15 20 1015.4 - 0.0 - - - - - - -
30/11:30am 14.4 SW 11 14 1015.3 - 0.0 - - - - - - -
30/11:00am 14.2 S 10 16 1015.1 - 0.0 - - - - - - -
30/10:30am 13.7 SSW 13 16 1015.0 - 0.0 - - - - - - -
30/10:00am 12.3 WSW 6 8 1014.6 - 0.0 - - - - - - -
30/09:30am 10.9 SW 5 7 1014.4 - 0.0 - - - - - - -
30/09:00am 9.4 S 3 4 1014.0 - 12.6 - - - - - - -
30/08:30am 7.3 S 6 6 1013.5 - 12.6 - - - - - - -
30/08:00am 5.7 S 4 5 1012.7 - 12.6 - - - - - - -
30/07:30am 4.7 S 5 6 1012.2 - 12.6 - - - - - - -
30/07:00am 6.0 SSW 4 5 1011.7 - 12.6 - - - - - - -
30/06:30am 6.5 SSW 3 5 1011.4 - 12.6 - - - - - - -
30/06:00am 7.4 SW 5 7 1011.2 - 12.4 - - - - - - -
30/05:30am 5.8 WSW 4 11 1010.7 - 11.8 - - - - - - -
30/05:00am 4.8 W 3 6 1010.1 - 11.4 - - - - - - -
30/04:30am 5.2 W 2 3 1009.7 - 11.4 - - - - - - -
30/04:00am 6.2 W 3 4 1009.4 - 11.4 - - - - - - -
30/03:30am 7.1 SW 5 7 1009.3 - 11.4 - - - - - - -
30/03:00am 4.5 CALM 0 0 1009.1 - 11.2 - - - - - - -
30/02:30am 6.3 CALM 0 0 1009.2 - 11.2 - - - - - - -
30/02:00am 6.7 CALM 0 0 1009.1 - 11.2 - - - - - - -
30/01:30am 7.4 S 4 5 1008.4 - 11.2 - - - - - - -
30/01:00am 8.2 W 4 4 1008.5 - 11.2 - - - - - - -
30/12:30am 8.8 WSW 3 11 1008.7 - 11.2 - - - - - - -
30/12:00am 9.1 SSW 5 7 1008.2 - 10.8 - - - - - - -
 
Date/Time
EDT
Temp
°C
Wind Pressure Rain since
9am
mm
Weather Cloud Vis
km
Sea
Height
m
Swell
Dir  Spd
kts
Gust
kts
hPa Trend Height
m
Period
s
Dir
29/11:30pm 8.3 CALM 0 5 1007.9 - 10.8 - - - - - - -
29/11:00pm 8.8 S 2 3 1007.9 - 10.8 - - - - - - -
29/10:30pm 9.8 S 2 4 1008.0 - 10.8 - - - - - - -
29/10:00pm 10.0 W 4 7 1007.7 - 10.8 - - - - - - -
29/09:30pm 10.0 WSW 4 5 1007.4 - 10.8 - - - - - - -
29/09:00pm 10.3 WSW 2 3 1006.8 - 10.8 - - - - - - -
29/08:30pm 10.5 WSW 5 6 1006.7 - 10.8 - - - - - - -
29/08:00pm 10.6 SSW 4 6 1005.9 - 10.8 - - - - - - -
29/07:30pm 10.9 SW 8 11 1006.5 - 10.4 - - - - - - -
29/07:00pm 10.9 SW 12 15 1006.2 - 9.8 - - - - - - -
29/06:30pm 11.1 SW 19 29 1005.5 - 9.4 - - - - - - -
29/06:10pm 11.4 SW 16 26 1004.7 - 9.0 - - - - - - -
29/06:00pm 11.6 SW 16 23 1004.3 - 9.0 - - - - - - -
29/05:30pm 11.6 WSW 19 25 1003.9 - 8.6 - - - - - - -
29/05:00pm 12.3 WSW 17 24 1002.7 - 8.4 - - - - - - -
29/04:30pm 12.9 SW 20 26 1002.1 - 8.4 - - - - - - -
29/04:29pm 13.0 SW 20 26 1002.0 - 8.4 - - - - - - -
29/04:16pm 13.8 SSW 18 26 1001.3 - 8.2 - - - - - - -
29/04:00pm 14.8 WSW 22 28 1001.2 - 8.2 - - - - - - -
29/03:57pm 15.7 W 23 28 1001.3 - 8.0 - - - - - - -
29/03:39pm 16.2 NW 18 28 1001.0 - 7.8 - - - - - - -
29/03:30pm 16.8 NNW 20 28 1001.0 - 4.0 - - - - - - -
29/03:00pm 18.9 NNW 19 26 1001.1 - 2.6 - - - - - - -
29/02:30pm 19.7 NW 20 27 1001.7 - 2.6 - - - - - - -
29/02:00pm 20.0 NW 19 23 1002.1 - 2.6 - - - - - - -
29/01:30pm 19.6 NW 21 28 1002.5 - 2.6 - - - - - - -
29/01:00pm 19.4 NW 18 27 1002.9 - 2.6 - - - - - - -
29/12:30pm 17.9 NW 14 20 1003.5 - 2.6 - - - - - - -
29/12:00pm 15.9 W 14 23 1004.2 - 1.8 - - - - - - -
29/11:30am 16.5 NW 10 14 1004.5 - 0.8 - - - - - - -
29/11:00am 16.3 NNW 16 22 1005.0 - 0.2 - - - - - - -
29/10:53am 17.1 NNW 17 27 1005.1 - 0.0 - - - - - - -
29/10:30am 17.9 NNW 14 20 1005.1 - 0.0 - - - - - - -
29/10:11am 17.9 NNW 19 30 1005.1 - 0.0 - - - - - - -
29/10:00am 18.1 NNW 17 23 1005.2 - 0.0 - - - - - - -
29/09:30am 17.7 NNW 14 22 1005.4 - 0.0 - - - - - - -
29/09:00am 17.5 NNW 14 22 1005.5 - 0.2 - - - - - - -
29/08:30am 17.1 N 13 18 1005.6 - 0.2 - - - - - - -
29/08:00am 16.7 N 11 16 1005.9 - 0.2 - - - - - - -
29/07:30am 16.6 NNW 13 19 1005.8 - 0.2 - - - - - - -
29/07:00am 16.4 NNW 11 15 1005.8 - 0.2 - - - - - - -
29/06:30am 16.5 N 10 13 1005.9 - 0.0 - - - - - - -
29/06:00am 16.2 N 10 16 1006.1 - 0.0 - - - - - - -
29/05:30am 16.5 N 9 13 1006.3 - 0.0 - - - - - - -
29/05:00am 16.9 NNW 11 15 1006.5 - 0.0 - - - - - - -
29/04:30am 16.8 NNW 9 12 1006.7 - 0.0 - - - - - - -
29/04:00am 16.7 N 7 9 1006.9 - 0.0 - - - - - - -
29/03:30am 16.5 NNW 7 10 1007.3 - 0.0 - - - - - - -
29/03:00am 16.4 NW 10 14 1007.6 - 0.0 - - - - - - -
29/02:30am 16.3 NNW 7 10 1008.0 - 0.0 - - - - - - -
29/02:00am 16.5 NW 9 13 1008.3 - 0.0 - - - - - - -
29/01:30am 15.8 NW 7 8 1008.4 - 0.0 - - - - - - -
29/01:00am 16.3 NW 12 17 1008.8 - 0.0 - - - - - - -
29/12:30am 16.2 NW 7 9 1009.0 - 0.0 - - - - - - -
29/12:00am 15.9 NW 5 6 1009.0 - 0.0 - - - - - - -
 
Date/Time
EDT
Temp
°C
Wind Pressure Rain since
9am
mm
Weather Cloud Vis
km
Sea
Height
m
Swell
Dir  Spd
kts
Gust
kts
hPa Trend Height
m
Period
s
Dir
28/11:30pm 15.8 WNW 6 8 1009.3 - 0.0 - - - - - - -
28/11:00pm 15.7 NNW 5 6 1009.5 - 0.0 - - - - - - -
28/10:30pm 15.6 NNW 5 7 1009.7 - 0.0 - - - - - - -
28/10:00pm 15.7 NW 7 9 1010.0 - 0.0 - - - - - - -
28/09:30pm 15.5 NW 3 5 1010.0 - 0.0 - - - - - - -
28/09:00pm 15.5 WNW 6 8 1010.0 - 0.0 - - - - - - -
28/08:30pm 15.7 W 6 9 1010.0 - 0.0 - - - - - - -
28/08:00pm 16.1 WNW 6 10 1009.7 - 0.0 - - - - - - -
28/07:30pm 16.0 NW 6 8 1009.5 - 0.0 - - - - - - -
28/07:00pm 16.1 WNW 10 14 1009.5 - 0.0 - - - - - - -
28/06:30pm 17.1 WNW 8 10 1009.4 - 0.0 - - - - - - -
28/06:00pm 17.4 WNW 12 17 1009.5 - 0.0 - - - - - - -
28/05:30pm 17.5 WNW 13 18 1009.6 - 0.0 - - - - - - -
28/05:00pm 18.2 WNW 14 19 1009.3 - 0.0 - - - - - - -
28/04:30pm 18.4 W 10 14 1009.4 - 0.0 - - - - - - -
28/04:00pm 18.5 W 14 17 1009.6 - 0.0 - - - - - - -
28/03:30pm 18.4 WNW 18 25 1009.8 - 0.0 - - - - - - -
28/03:00pm 18.5 WNW 16 22 1009.8 - 0.0 - - - - - - -
28/02:30pm 18.6 W 13 17 1009.9 - 0.0 - - - - - - -
28/02:00pm 17.6 W 13 18 1010.1 - 0.0 - - - - - - -
28/01:30pm 17.3 WSW 14 24 1010.4 - 0.0 - - - - - - -
28/01:00pm 17.7 WNW 11 18 1010.7 - 0.0 - - - - - - -
28/12:30pm 16.8 WNW 16 22 1011.3 - 0.0 - - - - - - -
28/12:00pm 18.0 WNW 12 18 1011.2 - 0.0 - - - - - - -
28/11:30am 17.1 WNW 14 19 1011.3 - 0.0 - - - - - - -
28/11:13am 16.6 WNW 18 31 1011.3 - 0.0 - - - - - - -
28/11:08am 17.7 WNW 17 23 1011.0 - 0.0 - - - - - - -
28/11:00am 17.6 W 9 12 1011.0 - 0.0 - - - - - - -
28/10:30am 18.1 NW 17 21 1011.1 - 0.0 - - - - - - -
28/10:00am 17.1 WNW 11 15 1011.1 - 0.0 - - - - - - -
28/09:30am 16.0 W 6 8 1011.0 - 0.0 - - - - - - -
28/09:00am 15.9 WNW 6 10 1010.7 - 6.8 - - - - - - -
28/08:30am 15.3 WNW 7 10 1010.5 - 6.8 - - - - - - -
28/08:00am 14.4 W 7 10 1010.4 - 6.8 - - - - - - -
28/07:30am 14.1 W 6 8 1010.3 - 6.8 - - - - - - -
28/07:00am 13.4 WNW 7 9 1010.1 - 6.8 - - - - - - -
28/06:30am 14.7 W 9 12 1009.9 - 6.8 - - - - - - -
28/06:00am 14.3 W 7 11 1009.6 - 6.8 - - - - - - -
28/05:30am 14.0 W 8 11 1009.4 - 6.8 - - - - - - -
28/05:00am 12.4 WNW 7 10 1009.2 - 6.8 - - - - - - -
28/04:30am 12.2 WNW 8 10 1009.0 - 6.8 - - - - - - -
28/04:00am 12.3 W 8 9 1008.9 - 6.8 - - - - - - -
28/03:30am 12.4 WNW 7 9 1008.9 - 6.8 - - - - - - -
28/03:00am 13.6 WNW 4 5 1009.0 - 6.8 - - - - - - -
28/02:30am 13.6 W 4 6 1009.2 - 6.8 - - - - - - -
28/02:00am 13.6 W 8 9 1009.4 - 6.8 - - - - - - -
28/01:30am 14.0 WNW 9 14 1009.3 - 6.8 - - - - - - -
28/01:00am 14.1 W 9 11 1009.2 - 6.8 - - - - - - -
28/12:30am 14.2 W 10 13 1009.0 - 6.8 - - - - - - -
28/12:00am 14.0 W 9 11 1009.2 - 6.8 - - - - - - -
 
Date/Time
EDT
Temp
°C
Wind Pressure Rain since
9am
mm
Weather Cloud Vis
km
Sea
Height
m
Swell
Dir  Spd
kts
Gust
kts
hPa Trend Height
m
Period
s
Dir
27/11:30pm 14.3 W 10 13 1009.2 - 6.8 - - - - - - -
27/11:00pm 14.5 W 9 13 1009.1 - 6.8 - - - - - - -
27/10:30pm 15.0 W 10 12 1009.0 - 6.6 - - - - - - -
27/10:00pm 15.5 W 14 19 1008.9 - 6.6 - - - - - - -
27/09:30pm 15.8 W 15 22 1008.6 - 6.6 - - - - - - -
27/09:00pm 15.9 W 15 21 1008.2 - 6.6 - - - - - - -
27/08:30pm 16.1 W 16 22 1007.7 - 6.6 - - - - - - -
27/08:00pm 16.1 W 15 21 1007.4 - 6.6 - - - - - - -

Other Formats:

Comma delimited format used in spreadsheet applications
http://www.bom.gov.au/fwo/IDV60701/IDV60701.94953.axf

JavaScript Object Notation format (JSON) in row-major order
http://www.bom.gov.au/fwo/IDV60701/IDV60701.94953.json